Time;durP1;ratioP1;P1;durP2;ratioP2;P2;SDS_P1;SDS_P2;PMS_P1;PMS_P2;Temp;Humidity;BMP_temperature;BMP_pressure;BME280_temperature;BME280_humidity;BME280_pressure;Samples;Min_cycle;Max_cycle;Signal;HPM_P1;HPM_P2
2024/01/11 00:00:31;;;;;;;7.57;2.05;;;;;;;6.00;100.00;103439.38;5085290;28;20553;-69
2024/01/11 00:02:58;;;;;;;7.82;1.88;;;;;;;5.95;100.00;103432.25;5072007;28;20071;-69
2024/01/11 00:05:24;;;;;;;7.20;1.85;;;;;;;6.01;100.00;103437.66;5075820;28;20044;-69
2024/01/11 00:07:51;;;;;;;11.43;2.55;;;;;;;5.89;100.00;103430.38;5074790;28;20036;-69
2024/01/11 00:10:19;;;;;;;7.00;2.10;;;;;;;5.91;100.00;103431.31;5070019;28;20458;-69
2024/01/11 00:12:45;;;;;;;7.68;2.10;;;;;;;5.73;100.00;103428.25;5076155;28;20635;-69
2024/01/11 00:15:12;;;;;;;8.35;2.28;;;;;;;5.66;100.00;103422.88;5069672;28;20052;-69
2024/01/11 00:17:39;;;;;;;6.57;1.95;;;;;;;5.69;100.00;103437.69;5067785;28;20045;-69
2024/01/11 00:20:07;;;;;;;5.30;1.90;;;;;;;5.62;100.00;103434.03;5070706;28;20131;-70
2024/01/11 00:22:33;;;;;;;5.97;2.10;;;;;;;5.70;100.00;103440.34;5070587;28;20048;-69
2024/01/11 00:25:00;;;;;;;6.10;2.28;;;;;;;5.79;100.00;103425.78;5092449;28;20401;-69
2024/01/11 00:27:27;;;;;;;4.97;1.80;;;;;;;5.68;100.00;103435.91;5068862;28;20057;-69
2024/01/11 00:29:53;;;;;;;4.00;1.65;;;;;;;5.69;100.00;103432.50;5071131;28;20048;-69
2024/01/11 00:32:21;;;;;;;9.60;2.17;;;;;;;5.75;100.00;103436.97;5069329;28;20140;-69
2024/01/11 00:34:48;;;;;;;10.43;2.85;;;;;;;5.61;100.00;103415.81;5068179;28;20110;-69
2024/01/11 00:37:15;;;;;;;5.55;1.83;;;;;;;5.59;100.00;103418.34;5068547;28;20040;-69
2024/01/11 00:39:42;;;;;;;6.32;2.00;;;;;;;5.79;100.00;103421.50;5069520;28;20044;-69
2024/01/11 00:42:08;;;;;;;5.00;2.00;;;;;;;5.44;100.00;103418.84;5075990;28;20047;-69
2024/01/11 00:44:35;;;;;;;7.80;1.92;;;;;;;5.41;100.00;103415.28;5079281;28;20051;-70
2024/01/11 00:47:02;;;;;;;5.15;1.95;;;;;;;5.48;100.00;103415.47;5075165;28;20382;-70
2024/01/11 00:49:29;;;;;;;7.40;1.90;;;;;;;5.50;100.00;103394.72;5072311;28;20094;-69
2024/01/11 00:51:55;;;;;;;7.38;2.20;;;;;;;5.49;100.00;103424.19;5074523;28;20121;-69
2024/01/11 00:54:23;;;;;;;10.60;2.90;;;;;;;5.55;100.00;103426.94;5074242;28;20490;-69
2024/01/11 00:56:50;;;;;;;6.63;1.70;;;;;;;5.57;100.00;103424.38;5070703;28;20092;-69
2024/01/11 00:59:17;;;;;;;5.05;1.75;;;;;;;5.46;100.00;103426.69;5073438;28;20089;-69
2024/01/11 01:01:50;;;;;;;6.80;2.03;;;;;;;5.40;100.00;103432.59;5070167;28;20056;-69
2024/01/11 01:04:16;;;;;;;;;;;;;;;5.64;100.00;103447.94;5073406;28;20529;-70
2024/01/11 01:06:43;;;;;;;7.65;2.03;;;;;;;5.68;100.00;103442.03;5080843;28;19932;-69
2024/01/11 01:09:10;;;;;;;6.88;2.42;;;;;;;5.47;100.00;103437.13;5068383;28;20056;-69
2024/01/11 01:11:37;;;;;;;7.28;2.35;;;;;;;5.59;100.00;103441.75;5079963;28;20058;-70
2024/01/11 01:14:04;;;;;;;9.85;3.80;;;;;;;5.49;100.00;103429.38;5069456;28;20052;-70
2024/01/11 01:16:31;;;;;;;7.82;2.00;;;;;;;5.64;100.00;103437.56;5059589;28;20442;-69
2024/01/11 01:18:58;;;;;;;8.80;2.10;;;;;;;5.51;100.00;103418.16;5065835;28;20052;-69
2024/01/11 01:21:25;;;;;;;5.43;1.65;;;;;;;5.70;100.00;103435.13;5072408;28;20044;-69
2024/01/11 01:23:52;;;;;;;5.50;1.65;;;;;;;5.64;100.00;103437.56;5071035;28;20123;-69
2024/01/11 01:26:19;;;;;;;5.75;1.77;;;;;;;5.60;100.00;103435.72;5067424;28;20075;-69
2024/01/11 01:28:46;;;;;;;9.70;2.00;;;;;;;5.50;100.00;103433.72;5070063;28;20048;-69
2024/01/11 01:31:14;;;;;;;5.40;2.13;;;;;;;5.65;100.00;103446.25;5067734;28;20405;-69
2024/01/11 01:33:40;;;;;;;5.90;1.70;;;;;;;5.60;100.00;103443.53;5071902;28;20088;-70
2024/01/11 01:36:09;;;;;;;4.95;1.95;;;;;;;5.50;100.00;103450.19;5069948;28;20049;-69
2024/01/11 01:38:36;;;;;;;5.47;1.77;;;;;;;5.50;100.00;103426.78;5072174;28;20140;-70
2024/01/11 01:41:03;;;;;;;4.82;1.65;;;;;;;5.58;100.00;103449.50;5069117;28;20762;-69
2024/01/11 01:43:30;;;;;;;3.38;1.40;;;;;;;5.65;100.00;103459.25;5072476;28;20094;-69
2024/01/11 01:45:57;;;;;;;4.40;1.67;;;;;;;5.43;100.00;103437.00;5066025;28;20059;-69
2024/01/11 01:48:24;;;;;;;5.32;1.45;;;;;;;5.74;100.00;103462.09;5068758;28;20052;-70
2024/01/11 01:50:51;;;;;;;4.25;1.50;;;;;;;5.67;100.00;103450.66;5075257;28;20044;-70
2024/01/11 01:53:22;;;;;;;4.28;1.77;;;;;;;5.73;100.00;103465.50;5070017;28;20052;-70
2024/01/11 01:55:50;;;;;;;5.28;1.52;;;;;;;5.58;100.00;103457.31;5072089;28;20052;-70
2024/01/11 01:58:18;;;;;;;8.18;1.85;;;;;;;5.56;100.00;103457.28;5072110;28;20040;-69
2024/01/11 02:00:47;;;;;;;5.80;1.70;;;;;;;5.51;100.00;103457.16;5070121;28;20048;-69
2024/01/11 02:03:15;;;;;;;7.07;1.75;;;;;;;5.47;100.00;103463.13;5056531;28;20102;-70
2024/01/11 02:05:42;;;;;;;7.75;1.80;;;;;;;5.29;100.00;103444.41;5068920;28;20055;-69
2024/01/11 02:08:15;;;;;;;6.57;1.83;;;;;;;5.43;100.00;103468.19;5070504;28;20093;-69
2024/01/11 02:10:42;;;;;;;13.10;3.00;;;;;;;5.44;100.00;103475.16;5055946;28;20220;-69
2024/01/11 02:13:09;;;;;;;5.50;2.10;;;;;;;5.62;100.00;103474.75;5078088;28;20059;-69
2024/01/11 02:15:36;;;;;;;12.80;2.35;;;;;;;5.54;100.00;103461.53;5080433;28;20060;-69
2024/01/11 02:18:03;;;;;;;6.70;1.90;;;;;;;5.60;100.00;103464.31;5083173;28;20047;-70
2024/01/11 02:20:31;;;;;;;5.00;1.90;;;;;;;5.49;100.00;103477.03;5081786;28;20101;-69
2024/01/11 02:23:03;;;;;;;6.38;1.80;;;;;;;5.49;100.00;103469.22;5073074;28;20056;-69
2024/01/11 02:25:30;;;;;;;6.13;1.65;;;;;;;5.53;100.00;103482.31;5075844;28;20510;-69
2024/01/11 02:27:56;;;;;;;8.05;2.92;;;;;;;5.53;100.00;103490.97;5072560;28;20051;-70
2024/01/11 02:30:23;;;;;;;5.22;1.90;;;;;;;5.51;100.00;103482.28;5075923;28;20074;-70
2024/01/11 02:32:51;;;;;;;12.60;2.38;;;;;;;5.45;100.00;103480.38;5071754;28;20458;-70
2024/01/11 02:35:18;;;;;;;6.85;1.90;;;;;;;5.36;100.00;103454.13;5082477;28;20143;-70
2024/01/11 02:37:46;;;;;;;5.25;1.83;;;;;;;5.44;100.00;103478.63;5072853;28;20470;-69
2024/01/11 02:40:14;;;;;;;5.28;1.90;;;;;;;5.57;100.00;103485.03;5083273;28;20052;-69
2024/01/11 02:42:41;;;;;;;9.63;2.58;;;;;;;5.26;100.00;103471.19;5061459;28;20060;-70
2024/01/11 02:45:10;;;;;;;8.48;2.05;;;;;;;5.19;100.00;103482.25;5073966;28;20052;-70
2024/01/11 02:47:36;;;;;;;10.02;4.22;;;;;;;5.29;100.00;103492.06;5075387;28;20044;-69
2024/01/11 02:50:03;;;;;;;7.60;2.20;;;;;;;5.19;100.00;103492.63;5071337;28;20057;-69
2024/01/11 02:52:30;;;;;;;7.18;2.10;;;;;;;5.30;100.00;103496.41;5068915;28;20056;-69
2024/01/11 02:54:57;;;;;;;6.50;1.80;;;;;;;5.22;100.00;103495.28;5072327;28;20049;-69
2024/01/11 02:57:24;;;;;;;4.40;1.63;;;;;;;5.31;100.00;103486.88;5063876;28;20440;-70
2024/01/11 02:59:51;;;;;;;3.05;1.23;;;;;;;5.53;100.00;103503.09;5073452;28;20048;-69
2024/01/11 03:02:18;;;;;;;2.65;1.35;;;;;;;5.48;100.00;103495.16;5072459;28;20431;-69
2024/01/11 03:04:44;;;;;;;4.45;1.65;;;;;;;5.56;100.00;103516.16;5072600;28;20047;-69
2024/01/11 03:07:11;;;;;;;3.20;1.40;;;;;;;5.54;100.00;103508.31;5073998;28;20477;-70
2024/01/11 03:09:38;;;;;;;5.32;1.17;;;;;;;5.43;100.00;103517.53;5070138;28;20056;-70
2024/01/11 03:12:06;;;;;;;7.70;2.78;;;;;;;5.36;100.00;103526.88;5083255;28;20076;-69
2024/01/11 03:14:33;;;;;;;6.70;1.52;;;;;;;5.44;100.00;103514.13;5080242;28;20059;-69
2024/01/11 03:17:00;;;;;;;4.30;1.40;;;;;;;5.58;100.00;103511.88;5060670;28;20131;-69
2024/01/11 03:19:27;;;;;;;5.50;1.60;;;;;;;5.54;100.00;103517.84;5073942;28;20074;-69
2024/01/11 03:21:54;;;;;;;7.13;1.67;;;;;;;5.63;100.00;103519.00;5057037;28;20085;-69
2024/01/11 03:24:21;;;;;;;8.13;1.75;;;;;;;5.59;100.00;103531.84;5074333;28;20418;-69
2024/01/11 03:26:48;;;;;;;6.07;1.60;;;;;;;5.44;100.00;103529.72;5072309;28;20048;-69
2024/01/11 03:29:15;;;;;;;4.65;1.60;;;;;;;5.51;100.00;103527.31;5076431;28;20048;-70
2024/01/11 03:31:44;;;;;;;5.18;1.80;;;;;;;5.54;100.00;103516.13;5074803;28;20052;-69
2024/01/11 03:34:11;;;;;;;5.63;1.88;;;;;;;5.54;100.00;103517.84;5061684;28;20902;-69
2024/01/11 03:36:38;;;;;;;8.30;1.60;;;;;;;5.38;100.00;103513.94;5075331;28;20474;-70
2024/01/11 03:39:06;;;;;;;8.63;1.73;;;;;;;5.34;100.00;103518.16;5071723;28;20381;-69
2024/01/11 03:41:32;;;;;;;6.22;1.60;;;;;;;5.31;100.00;103524.16;5083951;28;20058;-69
2024/01/11 03:43:59;;;;;;;3.97;1.40;;;;;;;5.35;100.00;103525.13;5076492;28;20336;-69
2024/01/11 03:46:26;;;;;;;5.93;1.67;;;;;;;5.28;100.00;103518.00;5070770;28;20040;-69
2024/01/11 03:48:53;;;;;;;3.85;1.40;;;;;;;5.28;100.00;103520.59;5069848;28;20071;-69
2024/01/11 03:51:20;;;;;;;3.65;1.35;;;;;;;5.46;100.00;103538.44;5079982;28;20139;-69
2024/01/11 03:53:46;;;;;;;3.10;1.40;;;;;;;5.35;100.00;103539.81;5069676;28;20505;-69
2024/01/11 03:56:13;;;;;;;7.63;1.85;;;;;;;5.31;100.00;103533.66;5079723;28;20055;-69
2024/01/11 03:58:41;;;;;;;4.65;1.60;;;;;;;5.32;100.00;103525.03;5074031;28;20474;-69
2024/01/11 04:01:10;;;;;;;13.73;1.90;;;;;;;5.12;100.00;103527.94;5082453;28;20134;-69
2024/01/11 04:03:37;;;;;;;5.32;1.40;;;;;;;5.29;100.00;103540.53;5068030;28;20494;-69
2024/01/11 04:06:04;;;;;;;12.60;1.98;;;;;;;5.18;100.00;103537.63;5063507;28;20045;-69
2024/01/11 04:08:31;;;;;;;6.10;1.55;;;;;;;5.18;100.00;103519.44;5070017;28;20134;-69
2024/01/11 04:11:02;;;;;;;4.53;1.60;;;;;;;5.33;100.00;103524.22;5070565;28;20057;-69
2024/01/11 04:13:28;;;;;;;5.82;1.38;;;;;;;5.19;100.00;103531.59;5070034;28;20171;-69
2024/01/11 04:15:55;;;;;;;3.95;1.60;;;;;;;5.27;100.00;103514.50;5075572;28;20629;-69
2024/01/11 04:18:22;;;;;;;5.85;1.30;;;;;;;5.48;100.00;103516.84;5073702;28;20079;-69
2024/01/11 04:20:48;;;;;;;4.28;1.58;;;;;;;5.52;100.00;103510.00;5086665;28;20052;-69
2024/01/11 04:23:15;;;;;;;3.90;1.30;;;;;;;5.38;100.00;103506.13;5080719;28;20056;-69
2024/01/11 04:25:42;;;;;;;5.97;1.50;;;;;;;5.47;100.00;103507.28;5073614;28;20056;-69
2024/01/11 04:28:09;;;;;;;2.85;1.10;;;;;;;5.50;100.00;103502.16;5080817;28;20044;-69
2024/01/11 04:30:36;;;;;;;5.13;1.30;;;;;;;5.51;100.00;103503.06;5071219;28;20494;-69
2024/01/11 04:33:03;;;;;;;5.22;1.33;;;;;;;5.44;100.00;103498.53;5075930;28;20101;-69
2024/01/11 04:35:29;;;;;;;6.93;1.20;;;;;;;5.47;100.00;103491.69;5071999;28;20052;-69
2024/01/11 04:37:56;;;;;;;6.32;1.40;;;;;;;5.37;100.00;103497.47;5066516;28;20048;-69
2024/01/11 04:40:23;;;;;;;4.70;1.35;;;;;;;5.42;100.00;103479.38;5067044;28;20052;-69
2024/01/11 04:42:50;;;;;;;4.60;1.30;;;;;;;5.63;100.00;103489.50;5060366;28;20413;-69
2024/01/11 04:45:16;;;;;;;10.40;2.08;;;;;;;5.41;100.00;103495.84;5082783;28;20366;-69
2024/01/11 04:47:43;;;;;;;4.30;1.30;;;;;;;5.56;100.00;103495.38;5071787;28;20466;-70
2024/01/11 04:50:10;;;;;;;4.60;1.63;;;;;;;5.37;100.00;103486.22;5075956;28;20101;-69
2024/01/11 04:52:37;;;;;;;5.55;1.50;;;;;;;5.33;100.00;103488.72;5077611;28;20386;-69
2024/01/11 04:55:05;;;;;;;3.90;1.27;;;;;;;5.46;100.00;103484.72;5073588;28;20047;-70
2024/01/11 04:57:31;;;;;;;5.85;1.50;;;;;;;5.52;100.00;103491.81;5069428;28;20148;-69
2024/01/11 04:59:58;;;;;;;3.50;1.35;;;;;;;5.49;100.00;103484.81;5075248;28;20048;-69
2024/01/11 05:02:28;;;;;;;8.68;1.65;;;;;;;5.60;100.00;103492.91;5071770;28;20053;-70
2024/01/11 05:04:55;;;;;;;2.58;1.20;;;;;;;5.63;100.00;103489.50;5078368;28;20416;-70
2024/01/11 05:07:22;;;;;;;6.47;1.77;;;;;;;5.61;100.00;103489.47;5072708;28;20474;-70
2024/01/11 05:09:48;;;;;;;5.53;1.60;;;;;;;5.57;100.00;103494.53;5074899;28;20059;-69
2024/01/11 05:12:16;;;;;;;4.10;1.33;;;;;;;5.61;100.00;103496.38;5054762;28;20091;-69
2024/01/11 05:14:43;;;;;;;4.85;1.20;;;;;;;5.47;100.00;103502.09;5069503;28;20048;-69
2024/01/11 05:17:09;;;;;;;4.45;1.38;;;;;;;5.52;100.00;103502.22;5070299;28;20056;-70
2024/01/11 05:19:36;;;;;;;7.43;1.30;;;;;;;5.53;100.00;103516.09;5072588;28;20088;-70
2024/01/11 05:22:03;;;;;;;5.10;1.40;;;;;;;5.48;100.00;103510.75;5073339;28;20146;-69
2024/01/11 05:24:30;;;;;;;8.35;1.73;;;;;;;5.50;100.00;103514.28;5085642;28;20048;-69
2024/01/11 05:26:56;;;;;;;12.23;2.00;;;;;;;5.40;100.00;103517.44;5068634;28;20048;-69
2024/01/11 05:29:23;;;;;;;5.40;1.38;;;;;;;5.37;100.00;103502.66;5068622;28;20070;-69
2024/01/11 05:31:50;;;;;;;4.75;1.50;;;;;;;5.38;100.00;103509.59;5070889;28;20131;-70
2024/01/11 05:34:16;;;;;;;6.85;1.85;;;;;;;5.37;100.00;103532.97;5081086;28;20098;-69
2024/01/11 05:36:43;;;;;;;4.32;1.30;;;;;;;5.21;100.00;103503.94;5071008;28;20048;-69
2024/01/11 05:39:10;;;;;;;8.10;1.60;;;;;;;5.42;100.00;103536.56;5064185;28;20037;-69
2024/01/11 05:41:37;;;;;;;6.07;1.58;;;;;;;5.26;100.00;103517.09;5070641;28;20394;-69
2024/01/11 05:44:04;;;;;;;6.70;1.63;;;;;;;5.24;100.00;103530.03;5058053;28;20109;-70
2024/01/11 05:46:31;;;;;;;7.32;1.50;;;;;;;5.31;100.00;103533.66;5072403;28;20072;-70
2024/01/11 05:48:59;;;;;;;5.32;1.60;;;;;;;5.35;100.00;103537.22;5070938;28;20132;-69
2024/01/11 05:51:26;;;;;;;5.68;1.67;;;;;;;5.25;100.00;103531.75;5078808;28;20051;-70
2024/01/11 05:53:53;;;;;;;5.18;1.48;;;;;;;5.18;100.00;103547.13;5066899;28;20052;-69
2024/01/11 05:56:20;;;;;;;7.78;3.00;;;;;;;5.23;100.00;103538.63;5065641;28;20486;-69
2024/01/11 05:58:47;;;;;;;5.45;1.60;;;;;;;5.40;100.00;103538.25;5072857;28;20072;-69
2024/01/11 06:01:14;;;;;;;7.78;1.67;;;;;;;5.41;100.00;103538.28;5072810;28;20482;-69
2024/01/11 06:03:41;;;;;;;8.40;1.63;;;;;;;5.25;100.00;103538.69;5060512;28;20098;-69
2024/01/11 06:06:08;;;;;;;6.68;1.80;;;;;;;5.24;100.00;103544.69;5066301;28;20139;-69
2024/01/11 06:08:35;;;;;;;7.95;1.58;;;;;;;5.31;100.00;103538.84;5071112;28;20141;-69
2024/01/11 06:11:03;;;;;;;3.97;1.48;;;;;;;5.29;100.00;103540.53;5070503;28;20433;-70
2024/01/11 06:13:31;;;;;;;8.52;2.10;;;;;;;5.23;100.00;103543.84;5067679;28;20294;-69
2024/01/11 06:15:57;;;;;;;10.20;1.77;;;;;;;5.20;100.00;103542.88;5075809;28;20060;-69
2024/01/11 06:18:24;;;;;;;7.80;1.98;;;;;;;5.31;100.00;103546.66;5071739;28;20040;-69
2024/01/11 06:20:51;;;;;;;8.38;2.30;;;;;;;5.30;100.00;103545.78;5076099;28;20056;-70
2024/01/11 06:23:19;;;;;;;8.13;1.77;;;;;;;5.23;100.00;103548.16;5072922;28;20110;-69
2024/01/11 06:25:46;;;;;;;6.30;1.50;;;;;;;5.25;100.00;103544.75;5075626;28;20059;-70
2024/01/11 06:28:13;;;;;;;6.88;2.03;;;;;;;5.23;100.00;103548.16;5079890;28;20440;-69
2024/01/11 06:30:40;;;;;;;8.00;1.95;;;;;;;5.21;100.00;103550.69;5064648;28;20056;-70
2024/01/11 06:33:07;;;;;;;8.95;1.73;;;;;;;5.30;100.00;103550.97;5062101;28;20497;-70
2024/01/11 06:35:34;;;;;;;10.82;2.40;;;;;;;5.24;100.00;103552.50;5056872;28;20052;-70
2024/01/11 06:38:00;;;;;;;10.88;2.28;;;;;;;5.32;100.00;103553.63;5068574;28;20152;-70
2024/01/11 06:40:27;;;;;;;5.82;1.80;;;;;;;5.42;100.00;103558.25;5059419;28;20060;-69
2024/01/11 06:42:54;;;;;;;7.43;2.38;;;;;;;5.44;100.00;103553.97;5069046;28;20052;-69
2024/01/11 06:45:20;;;;;;;6.50;1.98;;;;;;;5.38;100.00;103547.72;5065642;28;20144;-69
2024/01/11 06:47:48;;;;;;;7.55;1.98;;;;;;;5.58;100.00;103553.47;5055768;28;20564;-70
2024/01/11 06:50:16;;;;;;;9.30;1.95;;;;;;;5.65;100.00;103556.31;5064462;28;20044;-70
2024/01/11 06:52:43;;;;;;;6.82;1.90;;;;;;;5.60;100.00;103549.22;5068573;28;20501;-69
2024/01/11 06:55:10;;;;;;;11.63;2.50;;;;;;;5.50;100.00;103546.34;5057229;28;20447;-69
2024/01/11 06:57:37;;;;;;;9.77;2.08;;;;;;;5.56;100.00;103543.06;5056778;28;20297;-70
2024/01/11 07:00:07;;;;;;;6.32;2.15;;;;;;;5.56;100.00;103547.34;5063949;28;20549;-70
2024/01/11 07:02:34;;;;;;;9.10;1.90;;;;;;;5.51;100.00;103537.72;5053703;28;20059;-69
2024/01/11 07:05:01;;;;;;;8.52;2.35;;;;;;;5.39;100.00;103563.34;5065414;28;20056;-70
2024/01/11 07:07:27;;;;;;;8.10;2.28;;;;;;;5.44;100.00;103572.16;5050203;28;20135;-70
2024/01/11 07:09:55;;;;;;;6.88;1.95;;;;;;;5.43;100.00;103572.13;5051404;28;20398;-70
2024/01/11 07:12:22;;;;;;;8.63;2.15;;;;;;;5.61;100.00;103572.66;5049743;28;20068;-70
2024/01/11 07:14:49;;;;;;;9.40;1.88;;;;;;;5.61;100.00;103564.88;5065122;28;20051;-70
2024/01/11 07:17:15;;;;;;;10.13;2.15;;;;;;;5.64;100.00;103566.66;5065394;28;20513;-69
2024/01/11 07:19:42;;;;;;;10.80;2.60;;;;;;;5.65;100.00;103579.69;5062978;28;20086;-69
2024/01/11 07:22:09;;;;;;;7.15;1.80;;;;;;;5.59;100.00;103584.72;5069455;28;20055;-70
2024/01/11 07:24:39;;;;;;;6.35;1.73;;;;;;;5.69;100.00;103571.16;5070126;28;20425;-69
2024/01/11 07:27:06;;;;;;;7.55;1.70;;;;;;;5.69;100.00;103565.94;5068154;28;20054;-70
2024/01/11 07:29:33;;;;;;;9.00;1.90;;;;;;;5.68;100.00;103552.91;5067311;28;20041;-69
2024/01/11 07:32:01;;;;;;;9.95;2.40;;;;;;;5.77;100.00;103568.78;5066280;28;20083;-70
2024/01/11 07:34:28;;;;;;;4.43;1.52;;;;;;;5.75;100.00;103572.16;5064060;28;20051;-69
2024/01/11 07:36:56;;;;;;;9.82;1.85;;;;;;;5.69;100.00;103585.88;5049446;28;20053;-70
2024/01/11 07:39:24;;;;;;;13.10;1.95;;;;;;;5.53;100.00;103578.47;5065988;28;20044;-70
2024/01/11 07:41:51;;;;;;;9.55;2.00;;;;;;;5.70;100.00;103587.63;5072178;28;20051;-70
2024/01/11 07:44:18;;;;;;;8.93;1.80;;;;;;;5.57;100.00;103601.13;5073954;28;20059;-70
2024/01/11 07:46:45;;;;;;;8.02;1.80;;;;;;;5.66;100.00;103598.78;5068878;28;20049;-70
2024/01/11 07:49:20;;;;;;;10.25;2.60;;;;;;;5.66;100.00;103599.63;5066097;28;20081;-70
2024/01/11 07:51:47;;;;;;;12.07;2.05;;;;;;;5.51;100.00;103604.41;5069986;28;20126;-70
2024/01/11 07:54:14;;;;;;;13.35;3.72;;;;;;;5.66;100.00;103596.16;5071168;28;20059;-69
2024/01/11 07:56:40;;;;;;;9.73;2.38;;;;;;;5.51;100.00;103609.63;5076311;28;20048;-70
2024/01/11 07:59:07;;;;;;;6.75;1.65;;;;;;;5.65;100.00;103600.50;5068784;28;20063;-70
2024/01/11 08:01:35;;;;;;;15.63;2.15;;;;;;;5.85;100.00;103603.66;5064827;28;20053;-70
2024/01/11 08:04:02;;;;;;;10.30;2.25;;;;;;;5.82;100.00;103597.50;5059462;28;20095;-69
2024/01/11 08:06:30;;;;;;;10.52;2.78;;;;;;;5.82;100.00;103606.16;5062475;28;20127;-73
2024/01/11 08:08:57;;;;;;;6.38;1.75;;;;;;;5.90;100.00;103609.88;5060460;28;20336;-73
2024/01/11 08:11:23;;;;;;;9.85;1.85;;;;;;;5.95;100.00;103594.41;5063798;28;20049;-73
2024/01/11 08:13:54;;;;;;;11.25;2.63;;;;;;;5.94;100.00;103595.22;5081133;28;20068;-73
2024/01/11 08:16:21;;;;;;;12.20;2.53;;;;;;;5.74;100.00;103599.88;5064264;28;20486;-72
2024/01/11 08:18:48;;;;;;;5.57;1.67;;;;;;;5.95;100.00;103593.50;5058432;28;20052;-72
2024/01/11 08:21:15;;;;;;;9.75;2.03;;;;;;;5.93;100.00;103603.84;5047366;28;20064;-73
2024/01/11 08:23:44;;;;;;;9.50;1.90;;;;;;;5.82;100.00;103587.97;5048288;28;20136;-73
2024/01/11 08:26:13;;;;;;;11.52;1.83;;;;;;;5.92;100.00;103601.25;5055365;28;20072;-72
2024/01/11 08:28:41;;;;;;;9.45;2.00;;;;;;;5.95;100.00;103601.31;5058852;28;20062;-73
2024/01/11 08:31:10;;;;;;;11.57;2.45;;;;;;;5.97;100.00;103599.69;5075529;28;20049;-72
2024/01/11 08:33:37;;;;;;;9.40;1.98;;;;;;;5.95;100.00;103584.00;5064039;28;20386;-73
2024/01/11 08:36:06;;;;;;;7.70;2.33;;;;;;;5.91;100.00;103589.94;5049449;28;20064;-72
2024/01/11 08:38:33;;;;;;;13.75;2.90;;;;;;;5.64;100.00;103592.66;5053010;28;20044;-73
2024/01/11 08:41:00;;;;;;;11.98;2.55;;;;;;;5.74;100.00;103565.19;5049036;28;20128;-72
2024/01/11 08:43:27;;;;;;;9.30;2.15;;;;;;;5.94;100.00;103578.75;5049935;28;20409;-72
2024/01/11 08:45:54;;;;;;;12.38;2.40;;;;;;;5.96;100.00;103577.09;5054837;28;20504;-72
2024/01/11 08:48:21;;;;;;;9.13;2.17;;;;;;;6.02;100.00;103582.47;5052617;28;20041;-72
2024/01/11 08:50:48;;;;;;;13.15;3.10;;;;;;;6.11;100.00;103580.13;5050452;28;20049;-72
2024/01/11 08:53:15;;;;;;;10.40;2.40;;;;;;;5.93;100.00;103580.44;5067190;28;20051;-72
2024/01/11 08:55:43;;;;;;;12.07;2.38;;;;;;;5.90;100.00;103586.47;5056975;28;20057;-72
2024/01/11 08:58:12;;;;;;;6.50;1.90;;;;;;;5.95;100.00;103580.50;5064772;28;20052;-72
2024/01/11 09:00:39;;;;;;;8.40;1.88;;;;;;;5.87;100.00;103575.97;5064711;28;20606;-72
2024/01/11 09:03:06;;;;;;;13.77;2.38;;;;;;;5.73;100.00;103590.31;5062265;28;20052;-72
2024/01/11 09:05:33;;;;;;;11.13;2.25;;;;;;;5.77;100.00;103580.88;5057796;28;20040;-72
2024/01/11 09:07:59;;;;;;;9.30;2.47;;;;;;;5.69;100.00;103560.75;5068411;28;20079;-72
2024/01/11 09:10:27;;;;;;;10.25;1.90;;;;;;;6.10;100.00;103588.75;5049159;28;20076;-72
2024/01/11 09:12:54;;;;;;;10.68;2.72;;;;;;;5.94;100.00;103583.94;5055394;28;20052;-73
2024/01/11 09:15:21;;;;;;;11.85;2.03;;;;;;;5.87;100.00;103577.69;5067772;28;20048;-72
2024/01/11 09:17:49;;;;;;;10.82;2.88;;;;;;;6.04;100.00;103593.81;5068596;28;20044;-72
2024/01/11 09:20:16;;;;;;;7.70;1.70;;;;;;;5.81;100.00;103562.81;5052833;28;20475;-72
2024/01/11 09:22:43;;;;;;;13.63;2.85;;;;;;;6.00;100.00;103578.94;5050046;28;20144;-72
2024/01/11 09:25:10;;;;;;;16.80;2.83;;;;;;;5.96;100.00;103590.09;5064368;28;20044;-72
2024/01/11 09:27:36;;;;;;;12.50;2.42;;;;;;;6.00;100.00;103598.06;5060541;28;20491;-72
2024/01/11 09:30:04;;;;;;;10.10;2.13;;;;;;;6.00;100.00;103603.25;5069232;28;20473;-72
2024/01/11 09:32:31;;;;;;;13.68;3.53;;;;;;;5.92;100.00;103596.91;5064786;28;20132;-72
2024/01/11 09:34:58;;;;;;;20.95;3.15;;;;;;;5.99;100.00;103603.19;5061708;28;20086;-72
2024/01/11 09:37:25;;;;;;;9.05;2.13;;;;;;;6.20;100.00;103593.38;5062916;28;20049;-72
2024/01/11 09:39:52;;;;;;;11.40;2.65;;;;;;;6.10;100.00;103593.97;5058638;28;20485;-73
2024/01/11 09:42:19;;;;;;;9.95;2.42;;;;;;;6.11;100.00;103597.44;5049533;28;20094;-72
2024/01/11 09:44:46;;;;;;;6.55;2.08;;;;;;;6.26;100.00;103603.91;5050718;28;20133;-72
2024/01/11 09:47:16;;;;;;;10.88;2.45;;;;;;;6.15;100.00;103602.78;5050808;28;20143;-72
2024/01/11 09:49:44;;;;;;;10.32;2.00;;;;;;;6.23;100.00;103601.25;5064794;28;20036;-72
2024/01/11 09:52:14;;;;;;;6.93;1.90;;;;;;;6.31;100.00;103604.06;5067446;28;20135;-72
2024/01/11 09:54:42;;;;;;;11.95;4.13;;;;;;;6.25;100.00;103615.19;5060374;28;20045;-72
2024/01/11 09:57:09;;;;;;;6.97;1.83;;;;;;;6.29;100.00;103610.06;5062097;28;20055;-73
2024/01/11 09:59:37;;;;;;;10.60;2.55;;;;;;;6.08;100.00;103606.03;5074779;28;20052;-72
2024/01/11 10:02:07;;;;;;;12.07;2.28;;;;;;;6.16;100.00;103611.44;5057966;28;20049;-72
2024/01/11 10:04:35;;;;;;;14.23;2.35;;;;;;;6.10;100.00;103606.09;5055999;28;20415;-72
2024/01/11 10:07:04;;;;;;;9.70;2.58;;;;;;;6.26;100.00;103614.31;5054106;28;20057;-72
2024/01/11 10:09:31;;;;;;;10.25;2.53;;;;;;;6.28;100.00;103616.97;5055468;28;20539;-73
2024/01/11 10:11:58;;;;;;;9.13;2.22;;;;;;;6.13;100.00;103611.38;5049375;28;20533;-73
2024/01/11 10:14:25;;;;;;;7.55;2.33;;;;;;;6.22;100.00;103614.22;5067249;28;20048;-72
2024/01/11 10:16:54;;;;;;;7.05;1.90;;;;;;;6.32;100.00;103623.13;5068444;28;20048;-73
2024/01/11 10:19:21;;;;;;;8.98;2.10;;;;;;;6.17;100.00;103605.41;5066959;28;20049;-73
2024/01/11 10:21:48;;;;;;;11.90;2.55;;;;;;;6.24;100.00;103621.22;5066730;28;20553;-73
2024/01/11 10:24:20;;;;;;;8.48;1.80;;;;;;;6.35;100.00;103608.47;5057367;28;20496;-73
2024/01/11 10:26:47;;;;;;;9.90;2.28;;;;;;;6.27;100.00;103628.25;5057104;28;20636;-73
2024/01/11 10:29:14;;;;;;;11.82;2.35;;;;;;;6.24;100.00;103621.22;5063200;28;20182;-73
2024/01/11 10:31:41;;;;;;;10.57;1.80;;;;;;;6.41;100.00;103629.47;5060580;28;20701;-73
2024/01/11 10:34:08;;;;;;;8.38;2.00;;;;;;;6.35;100.00;103624.09;5069252;28;20055;-73
2024/01/11 10:36:35;;;;;;;10.52;2.63;;;;;;;6.32;100.00;103631.84;5073086;28;20432;-73
2024/01/11 10:39:07;;;;;;;7.15;2.03;;;;;;;6.34;100.00;103637.06;5063476;28;20358;-73
2024/01/11 10:41:40;;;;;;;7.95;2.67;;;;;;;6.21;100.00;103628.94;5071766;28;20091;-72
2024/01/11 10:44:21;;;;;;;7.95;2.03;;;;;;;6.31;100.00;103642.22;5068852;28;20174;-73
2024/01/11 10:46:49;;;;;;;7.30;2.08;;;;;;;6.32;100.00;103646.56;5066499;28;20478;-72
2024/01/11 10:49:19;;;;;;;9.55;1.98;;;;;;;6.21;100.00;103644.53;5063185;28;20041;-72
2024/01/11 10:51:56;;;;;;;6.22;1.60;;;;;;;6.30;100.00;103630.03;5071492;28;20437;-72
2024/01/11 10:54:23;;;;;;;6.30;1.60;;;;;;;6.43;100.00;103637.34;5057771;28;20053;-72
2024/01/11 10:56:51;;;;;;;9.25;1.77;;;;;;;6.32;100.00;103634.47;5052899;28;20057;-73
2024/01/11 10:59:24;;;;;;;8.32;2.03;;;;;;;6.39;100.00;103622.47;5074702;28;20079;-72
2024/01/11 11:01:55;;;;;;;8.88;1.90;;;;;;;6.58;100.00;103629.03;5058031;28;20403;-72
2024/01/11 11:04:23;;;;;;;17.40;3.03;;;;;;;6.30;100.00;103636.09;5051097;28;20132;-72
2024/01/11 11:06:58;;;;;;;8.52;2.05;;;;;;;6.34;100.00;103637.06;5049029;28;20056;-72
2024/01/11 11:09:25;;;;;;;12.48;2.38;;;;;;;6.48;100.00;103635.75;5053708;28;20124;-72
2024/01/11 11:11:59;;;;;;;7.80;2.08;;;;;;;6.54;100.00;103646.28;5050039;28;20049;-72
2024/01/11 11:14:25;;;;;;;;;;;;;;;6.56;100.00;103633.31;5061068;28;20044;-73
2024/01/11 11:16:52;;;;;;;9.27;2.65;;;;;;;6.51;100.00;103640.13;5054276;28;20279;-73
2024/01/11 11:19:20;;;;;;;10.35;2.45;;;;;;;6.37;100.00;103639.75;5063485;28;20098;-72
2024/01/11 11:21:48;;;;;;;8.38;2.15;;;;;;;6.25;100.00;103609.06;5068692;28;20384;-72
2024/01/11 11:24:19;;;;;;;6.95;2.03;;;;;;;6.45;100.00;103633.03;5057164;28;20045;-72